sensor_id;sensor_type;location;lat;lon;timestamp;P1;durP1;ratioP1;P2;durP2;ratioP2
3811;SDS011;1921;49.368;11.068;2022-09-13T00:00:41;62.27;;;51.23;;
3811;SDS011;1921;49.368;11.068;2022-09-13T00:03:09;60.13;;;50.67;;
3811;SDS011;1921;49.368;11.068;2022-09-13T00:05:37;60.17;;;51.43;;
3811;SDS011;1921;49.368;11.068;2022-09-13T00:08:03;69.07;;;52.00;;
3811;SDS011;1921;49.368;11.068;2022-09-13T00:10:32;61.27;;;50.90;;
3811;SDS011;1921;49.368;11.068;2022-09-13T00:13:01;59.37;;;51.50;;
3811;SDS011;1921;49.368;11.068;2022-09-13T00:15:27;58.43;;;50.17;;
3811;SDS011;1921;49.368;11.068;2022-09-13T00:17:54;63.23;;;50.40;;
3811;SDS011;1921;49.368;11.068;2022-09-13T00:20:20;60.23;;;50.37;;
3811;SDS011;1921;49.368;11.068;2022-09-13T00:22:46;64.23;;;50.73;;
3811;SDS011;1921;49.368;11.068;2022-09-13T00:25:12;67.97;;;51.40;;
3811;SDS011;1921;49.368;11.068;2022-09-13T00:27:37;56.40;;;50.20;;
3811;SDS011;1921;49.368;11.068;2022-09-13T00:30:04;59.33;;;51.53;;
3811;SDS011;1921;49.368;11.068;2022-09-13T00:32:32;58.67;;;51.13;;
3811;SDS011;1921;49.368;11.068;2022-09-13T00:34:59;64.53;;;50.50;;
3811;SDS011;1921;49.368;11.068;2022-09-13T00:37:27;60.83;;;51.23;;
3811;SDS011;1921;49.368;11.068;2022-09-13T00:39:53;60.27;;;50.30;;
3811;SDS011;1921;49.368;11.068;2022-09-13T00:42:23;60.37;;;51.30;;
3811;SDS011;1921;49.368;11.068;2022-09-13T00:45:00;56.83;;;50.07;;
3811;SDS011;1921;49.368;11.068;2022-09-13T00:47:44;62.20;;;50.80;;
3811;SDS011;1921;49.368;11.068;2022-09-13T00:50:22;59.87;;;51.40;;
3811;SDS011;1921;49.368;11.068;2022-09-13T00:53:04;60.23;;;51.20;;
3811;SDS011;1921;49.368;11.068;2022-09-13T00:58:27;62.90;;;51.37;;
3811;SDS011;1921;49.368;11.068;2022-09-13T01:00:58;60.83;;;51.60;;
3811;SDS011;1921;49.368;11.068;2022-09-13T01:03:26;61.07;;;51.23;;
3811;SDS011;1921;49.368;11.068;2022-09-13T01:06:03;61.33;;;50.83;;
3811;SDS011;1921;49.368;11.068;2022-09-13T01:08:38;61.00;;;52.00;;
3811;SDS011;1921;49.368;11.068;2022-09-13T01:11:12;65.33;;;52.47;;
3811;SDS011;1921;49.368;11.068;2022-09-13T01:14:05;61.17;;;51.10;;
3811;SDS011;1921;49.368;11.068;2022-09-13T01:16:33;58.90;;;49.40;;
3811;SDS011;1921;49.368;11.068;2022-09-13T01:18:58;59.50;;;51.20;;
3811;SDS011;1921;49.368;11.068;2022-09-13T01:30:31;62.33;;;50.43;;
3811;SDS011;1921;49.368;11.068;2022-09-13T01:34:11;59.47;;;50.90;;
3811;SDS011;1921;49.368;11.068;2022-09-13T01:37:12;62.30;;;51.13;;
3811;SDS011;1921;49.368;11.068;2022-09-13T01:39:57;61.30;;;50.77;;
3811;SDS011;1921;49.368;11.068;2022-09-13T01:42:47;59.70;;;49.90;;
3811;SDS011;1921;49.368;11.068;2022-09-13T01:45:55;62.27;;;52.00;;
3811;SDS011;1921;49.368;11.068;2022-09-13T01:51:32;63.17;;;51.70;;
3811;SDS011;1921;49.368;11.068;2022-09-13T01:57:00;68.00;;;51.70;;
3811;SDS011;1921;49.368;11.068;2022-09-13T01:59:45;62.60;;;50.50;;
3811;SDS011;1921;49.368;11.068;2022-09-13T02:07:56;64.53;;;51.63;;
3811;SDS011;1921;49.368;11.068;2022-09-13T02:10:33;63.47;;;50.40;;
3811;SDS011;1921;49.368;11.068;2022-09-13T02:13:07;78.40;;;52.10;;
3811;SDS011;1921;49.368;11.068;2022-09-13T02:15:45;66.40;;;51.73;;
3811;SDS011;1921;49.368;11.068;2022-09-13T02:18:29;63.10;;;51.67;;
3811;SDS011;1921;49.368;11.068;2022-09-13T02:21:06;61.77;;;50.37;;
3811;SDS011;1921;49.368;11.068;2022-09-13T02:23:53;65.30;;;50.33;;
3811;SDS011;1921;49.368;11.068;2022-09-13T02:26:37;60.80;;;50.60;;
3811;SDS011;1921;49.368;11.068;2022-09-13T02:29:09;65.97;;;52.30;;
3811;SDS011;1921;49.368;11.068;2022-09-13T02:31:54;63.47;;;50.70;;
3811;SDS011;1921;49.368;11.068;2022-09-13T02:34:35;63.97;;;51.33;;
3811;SDS011;1921;49.368;11.068;2022-09-13T02:37:22;71.23;;;52.70;;
3811;SDS011;1921;49.368;11.068;2022-09-13T02:39:53;62.80;;;51.37;;
3811;SDS011;1921;49.368;11.068;2022-09-13T02:45:14;67.80;;;52.30;;
3811;SDS011;1921;49.368;11.068;2022-09-13T02:50:30;94.87;;;53.47;;
3811;SDS011;1921;49.368;11.068;2022-09-13T02:53:23;63.10;;;50.70;;
3811;SDS011;1921;49.368;11.068;2022-09-13T02:59:19;60.30;;;51.43;;
3811;SDS011;1921;49.368;11.068;2022-09-13T03:01:55;60.57;;;50.47;;
3811;SDS011;1921;49.368;11.068;2022-09-13T03:04:35;65.53;;;51.03;;
3811;SDS011;1921;49.368;11.068;2022-09-13T03:07:01;57.57;;;50.33;;
3811;SDS011;1921;49.368;11.068;2022-09-13T03:09:28;65.00;;;50.30;;
3811;SDS011;1921;49.368;11.068;2022-09-13T03:15:20;63.50;;;51.30;;
3811;SDS011;1921;49.368;11.068;2022-09-13T03:18:35;65.20;;;50.30;;
3811;SDS011;1921;49.368;11.068;2022-09-13T03:25:05;62.30;;;50.10;;
3811;SDS011;1921;49.368;11.068;2022-09-13T03:27:52;62.23;;;49.87;;
3811;SDS011;1921;49.368;11.068;2022-09-13T03:30:46;60.43;;;51.07;;
3811;SDS011;1921;49.368;11.068;2022-09-13T03:36:46;63.07;;;51.37;;
3811;SDS011;1921;49.368;11.068;2022-09-13T03:39:36;59.27;;;50.53;;
3811;SDS011;1921;49.368;11.068;2022-09-13T03:42:17;64.00;;;50.77;;
3811;SDS011;1921;49.368;11.068;2022-09-13T03:45:23;61.07;;;50.70;;
3811;SDS011;1921;49.368;11.068;2022-09-13T03:47:53;65.57;;;51.43;;
3811;SDS011;1921;49.368;11.068;2022-09-13T03:50:21;61.30;;;50.30;;
3811;SDS011;1921;49.368;11.068;2022-09-13T03:52:50;64.03;;;51.30;;
3811;SDS011;1921;49.368;11.068;2022-09-13T03:55:25;59.50;;;50.93;;
3811;SDS011;1921;49.368;11.068;2022-09-13T03:57:52;57.50;;;49.93;;
3811;SDS011;1921;49.368;11.068;2022-09-13T04:00:18;63.00;;;50.40;;
3811;SDS011;1921;49.368;11.068;2022-09-13T04:02:44;62.10;;;51.27;;
3811;SDS011;1921;49.368;11.068;2022-09-13T04:05:09;59.50;;;50.97;;
3811;SDS011;1921;49.368;11.068;2022-09-13T04:07:35;56.63;;;50.13;;
3811;SDS011;1921;49.368;11.068;2022-09-13T04:10:01;61.87;;;51.03;;
3811;SDS011;1921;49.368;11.068;2022-09-13T04:12:26;60.10;;;51.50;;
3811;SDS011;1921;49.368;11.068;2022-09-13T04:15:00;59.30;;;51.20;;
3811;SDS011;1921;49.368;11.068;2022-09-13T04:17:26;63.90;;;51.47;;
3811;SDS011;1921;49.368;11.068;2022-09-13T04:19:52;61.47;;;51.40;;
3811;SDS011;1921;49.368;11.068;2022-09-13T04:22:18;66.50;;;51.60;;
3811;SDS011;1921;49.368;11.068;2022-09-13T04:24:43;60.30;;;51.60;;
3811;SDS011;1921;49.368;11.068;2022-09-13T04:27:09;63.17;;;51.43;;
3811;SDS011;1921;49.368;11.068;2022-09-13T04:29:36;62.40;;;51.03;;
3811;SDS011;1921;49.368;11.068;2022-09-13T04:32:02;62.33;;;50.13;;
3811;SDS011;1921;49.368;11.068;2022-09-13T04:34:27;62.57;;;51.50;;
3811;SDS011;1921;49.368;11.068;2022-09-13T04:36:53;59.50;;;50.40;;
3811;SDS011;1921;49.368;11.068;2022-09-13T04:39:19;64.40;;;51.83;;
3811;SDS011;1921;49.368;11.068;2022-09-13T04:41:46;62.07;;;51.27;;
3811;SDS011;1921;49.368;11.068;2022-09-13T04:44:14;65.13;;;52.33;;
3811;SDS011;1921;49.368;11.068;2022-09-13T04:46:41;71.37;;;52.70;;
3811;SDS011;1921;49.368;11.068;2022-09-13T04:49:12;65.67;;;51.20;;
3811;SDS011;1921;49.368;11.068;2022-09-13T04:51:38;62.30;;;51.73;;
3811;SDS011;1921;49.368;11.068;2022-09-13T04:54:04;61.73;;;51.57;;
3811;SDS011;1921;49.368;11.068;2022-09-13T04:56:30;65.27;;;51.60;;
3811;SDS011;1921;49.368;11.068;2022-09-13T04:58:56;70.07;;;51.37;;
3811;SDS011;1921;49.368;11.068;2022-09-13T05:01:22;62.30;;;51.70;;
3811;SDS011;1921;49.368;11.068;2022-09-13T05:03:51;65.30;;;52.50;;
3811;SDS011;1921;49.368;11.068;2022-09-13T05:06:17;63.70;;;51.43;;
3811;SDS011;1921;49.368;11.068;2022-09-13T05:08:48;63.93;;;51.33;;
3811;SDS011;1921;49.368;11.068;2022-09-13T05:11:18;62.40;;;51.40;;
3811;SDS011;1921;49.368;11.068;2022-09-13T05:13:52;61.77;;;52.20;;
3811;SDS011;1921;49.368;11.068;2022-09-13T05:16:23;67.23;;;52.93;;
3811;SDS011;1921;49.368;11.068;2022-09-13T05:18:52;62.07;;;50.97;;
3811;SDS011;1921;49.368;11.068;2022-09-13T05:21:19;66.90;;;52.57;;
3811;SDS011;1921;49.368;11.068;2022-09-13T05:23:49;64.00;;;52.10;;
3811;SDS011;1921;49.368;11.068;2022-09-13T05:26:16;70.40;;;52.70;;
3811;SDS011;1921;49.368;11.068;2022-09-13T05:28:42;62.93;;;50.97;;
3811;SDS011;1921;49.368;11.068;2022-09-13T05:31:13;65.73;;;52.70;;
3811;SDS011;1921;49.368;11.068;2022-09-13T05:33:46;65.63;;;52.00;;
3811;SDS011;1921;49.368;11.068;2022-09-13T05:36:17;59.57;;;51.10;;
3811;SDS011;1921;49.368;11.068;2022-09-13T05:38:44;66.37;;;51.17;;
3811;SDS011;1921;49.368;11.068;2022-09-13T05:41:09;61.37;;;52.07;;
3811;SDS011;1921;49.368;11.068;2022-09-13T05:43:35;65.73;;;52.07;;
3811;SDS011;1921;49.368;11.068;2022-09-13T05:46:14;63.33;;;51.43;;
3811;SDS011;1921;49.368;11.068;2022-09-13T05:48:42;65.33;;;52.67;;
3811;SDS011;1921;49.368;11.068;2022-09-13T05:53:40;68.40;;;53.60;;
3811;SDS011;1921;49.368;11.068;2022-09-13T05:56:09;68.13;;;52.97;;
3811;SDS011;1921;49.368;11.068;2022-09-13T05:58:38;67.40;;;52.37;;
3811;SDS011;1921;49.368;11.068;2022-09-13T06:01:05;60.63;;;49.67;;
3811;SDS011;1921;49.368;11.068;2022-09-13T06:03:32;64.43;;;51.93;;
3811;SDS011;1921;49.368;11.068;2022-09-13T06:05:58;66.30;;;52.03;;
3811;SDS011;1921;49.368;11.068;2022-09-13T06:08:24;64.27;;;52.33;;
3811;SDS011;1921;49.368;11.068;2022-09-13T06:10:59;60.00;;;50.43;;
3811;SDS011;1921;49.368;11.068;2022-09-13T06:13:27;64.40;;;52.00;;
3811;SDS011;1921;49.368;11.068;2022-09-13T06:15:54;62.00;;;51.27;;
3811;SDS011;1921;49.368;11.068;2022-09-13T06:18:22;61.30;;;51.27;;
3811;SDS011;1921;49.368;11.068;2022-09-13T06:20:49;61.23;;;51.20;;
3811;SDS011;1921;49.368;11.068;2022-09-13T06:23:15;61.50;;;50.80;;
3811;SDS011;1921;49.368;11.068;2022-09-13T06:25:42;62.37;;;51.10;;
3811;SDS011;1921;49.368;11.068;2022-09-13T06:28:08;61.67;;;50.80;;
3811;SDS011;1921;49.368;11.068;2022-09-13T06:30:34;63.40;;;51.73;;
3811;SDS011;1921;49.368;11.068;2022-09-13T06:33:00;62.47;;;51.07;;
3811;SDS011;1921;49.368;11.068;2022-09-13T06:35:26;61.83;;;51.47;;
3811;SDS011;1921;49.368;11.068;2022-09-13T06:37:55;63.53;;;52.30;;
3811;SDS011;1921;49.368;11.068;2022-09-13T06:40:22;62.43;;;51.27;;
3811;SDS011;1921;49.368;11.068;2022-09-13T06:42:49;59.97;;;50.50;;
3811;SDS011;1921;49.368;11.068;2022-09-13T06:45:14;62.63;;;51.40;;
3811;SDS011;1921;49.368;11.068;2022-09-13T06:47:40;61.80;;;50.97;;
3811;SDS011;1921;49.368;11.068;2022-09-13T06:50:06;61.50;;;51.03;;
3811;SDS011;1921;49.368;11.068;2022-09-13T06:52:33;62.50;;;51.23;;
3811;SDS011;1921;49.368;11.068;2022-09-13T06:54:59;62.70;;;51.97;;
3811;SDS011;1921;49.368;11.068;2022-09-13T06:57:25;58.93;;;49.60;;
3811;SDS011;1921;49.368;11.068;2022-09-13T06:59:53;61.07;;;50.53;;
3811;SDS011;1921;49.368;11.068;2022-09-13T07:02:19;63.10;;;51.20;;
3811;SDS011;1921;49.368;11.068;2022-09-13T07:04:45;61.63;;;51.57;;
3811;SDS011;1921;49.368;11.068;2022-09-13T07:07:10;66.20;;;51.83;;
3811;SDS011;1921;49.368;11.068;2022-09-13T07:09:36;66.40;;;51.50;;
3811;SDS011;1921;49.368;11.068;2022-09-13T07:12:03;64.70;;;51.60;;
3811;SDS011;1921;49.368;11.068;2022-09-13T07:14:31;64.20;;;52.07;;
3811;SDS011;1921;49.368;11.068;2022-09-13T07:16:56;64.27;;;51.73;;
3811;SDS011;1921;49.368;11.068;2022-09-13T07:19:23;65.20;;;52.07;;
3811;SDS011;1921;49.368;11.068;2022-09-13T07:21:50;63.57;;;51.60;;
3811;SDS011;1921;49.368;11.068;2022-09-13T07:24:18;70.93;;;52.23;;
3811;SDS011;1921;49.368;11.068;2022-09-13T07:26:45;61.73;;;51.37;;
3811;SDS011;1921;49.368;11.068;2022-09-13T07:29:12;67.27;;;52.57;;
3811;SDS011;1921;49.368;11.068;2022-09-13T07:31:45;64.13;;;52.20;;
3811;SDS011;1921;49.368;11.068;2022-09-13T07:34:20;63.47;;;52.10;;
3811;SDS011;1921;49.368;11.068;2022-09-13T07:36:48;68.97;;;52.33;;
3811;SDS011;1921;49.368;11.068;2022-09-13T07:39:14;64.23;;;51.90;;
3811;SDS011;1921;49.368;11.068;2022-09-13T07:41:41;63.10;;;51.43;;
3811;SDS011;1921;49.368;11.068;2022-09-13T07:44:08;64.77;;;51.80;;
3811;SDS011;1921;49.368;11.068;2022-09-13T07:46:35;63.60;;;51.20;;
3811;SDS011;1921;49.368;11.068;2022-09-13T07:49:06;64.60;;;52.20;;
3811;SDS011;1921;49.368;11.068;2022-09-13T07:51:32;64.03;;;52.73;;
3811;SDS011;1921;49.368;11.068;2022-09-13T07:54:02;64.27;;;52.00;;
3811;SDS011;1921;49.368;11.068;2022-09-13T07:56:32;62.43;;;51.80;;
3811;SDS011;1921;49.368;11.068;2022-09-13T07:59:02;67.23;;;53.00;;
3811;SDS011;1921;49.368;11.068;2022-09-13T08:01:39;65.37;;;52.60;;
3811;SDS011;1921;49.368;11.068;2022-09-13T08:04:08;65.00;;;52.20;;
3811;SDS011;1921;49.368;11.068;2022-09-13T08:06:41;67.63;;;52.33;;
3811;SDS011;1921;49.368;11.068;2022-09-13T08:09:08;64.77;;;52.40;;
3811;SDS011;1921;49.368;11.068;2022-09-13T08:14:03;64.80;;;52.30;;
3811;SDS011;1921;49.368;11.068;2022-09-13T08:16:31;66.70;;;53.20;;
3811;SDS011;1921;49.368;11.068;2022-09-13T08:18:58;65.50;;;52.47;;
3811;SDS011;1921;49.368;11.068;2022-09-13T08:21:30;68.30;;;53.17;;
3811;SDS011;1921;49.368;11.068;2022-09-13T08:24:02;66.60;;;53.13;;
3811;SDS011;1921;49.368;11.068;2022-09-13T08:26:30;65.30;;;53.00;;
3811;SDS011;1921;49.368;11.068;2022-09-13T08:28:58;65.93;;;53.47;;
3811;SDS011;1921;49.368;11.068;2022-09-13T08:31:26;65.20;;;52.20;;
3811;SDS011;1921;49.368;11.068;2022-09-13T08:33:54;65.37;;;52.70;;
3811;SDS011;1921;49.368;11.068;2022-09-13T08:36:21;64.97;;;52.80;;
3811;SDS011;1921;49.368;11.068;2022-09-13T08:38:48;72.13;;;53.23;;
3811;SDS011;1921;49.368;11.068;2022-09-13T08:43:52;66.93;;;52.93;;
3811;SDS011;1921;49.368;11.068;2022-09-13T08:46:40;67.70;;;52.83;;
3811;SDS011;1921;49.368;11.068;2022-09-13T08:49:15;73.13;;;53.73;;
3811;SDS011;1921;49.368;11.068;2022-09-13T08:51:48;69.93;;;53.50;;
3811;SDS011;1921;49.368;11.068;2022-09-13T08:54:18;69.23;;;54.30;;
3811;SDS011;1921;49.368;11.068;2022-09-13T08:59:59;69.27;;;54.40;;
3811;SDS011;1921;49.368;11.068;2022-09-13T09:05:38;67.43;;;54.00;;
3811;SDS011;1921;49.368;11.068;2022-09-13T09:08:14;68.57;;;54.50;;
3811;SDS011;1921;49.368;11.068;2022-09-13T09:10:49;68.23;;;54.30;;
3811;SDS011;1921;49.368;11.068;2022-09-13T09:19:53;69.60;;;53.93;;
3811;SDS011;1921;49.368;11.068;2022-09-13T09:22:05;68.87;;;53.70;;
3811;SDS011;1921;49.368;11.068;2022-09-13T09:24:38;69.63;;;53.30;;
3811;SDS011;1921;49.368;11.068;2022-09-13T09:27:14;68.80;;;53.97;;
3811;SDS011;1921;49.368;11.068;2022-09-13T09:29:42;67.50;;;53.23;;
3811;SDS011;1921;49.368;11.068;2022-09-13T09:38:39;66.10;;;53.40;;
3811;SDS011;1921;49.368;11.068;2022-09-13T09:41:16;67.43;;;53.70;;
3811;SDS011;1921;49.368;11.068;2022-09-13T09:44:00;67.80;;;53.57;;
3811;SDS011;1921;49.368;11.068;2022-09-13T09:46:58;65.60;;;52.63;;
3811;SDS011;1921;49.368;11.068;2022-09-13T09:50:26;66.10;;;52.93;;
3811;SDS011;1921;49.368;11.068;2022-09-13T09:58:04;64.67;;;52.60;;
3811;SDS011;1921;49.368;11.068;2022-09-13T10:00:33;65.53;;;52.87;;
3811;SDS011;1921;49.368;11.068;2022-09-13T10:03:16;67.00;;;52.97;;
3811;SDS011;1921;49.368;11.068;2022-09-13T10:05:46;65.30;;;52.50;;
3811;SDS011;1921;49.368;11.068;2022-09-13T10:08:29;65.00;;;52.90;;
3811;SDS011;1921;49.368;11.068;2022-09-13T10:10:59;66.10;;;52.80;;
3811;SDS011;1921;49.368;11.068;2022-09-13T10:13:26;65.10;;;52.67;;
3811;SDS011;1921;49.368;11.068;2022-09-13T10:15:57;66.03;;;53.20;;
3811;SDS011;1921;49.368;11.068;2022-09-13T10:18:31;65.87;;;53.10;;
3811;SDS011;1921;49.368;11.068;2022-09-13T10:23:44;68.40;;;53.37;;
3811;SDS011;1921;49.368;11.068;2022-09-13T10:26:12;66.13;;;53.37;;
3811;SDS011;1921;49.368;11.068;2022-09-13T10:31:29;65.83;;;53.03;;
3811;SDS011;1921;49.368;11.068;2022-09-13T10:34:13;70.97;;;53.20;;
3811;SDS011;1921;49.368;11.068;2022-09-13T10:36:54;65.10;;;52.90;;
3811;SDS011;1921;49.368;11.068;2022-09-13T10:39:38;66.20;;;52.97;;
3811;SDS011;1921;49.368;11.068;2022-09-13T10:42:24;64.97;;;52.90;;
3811;SDS011;1921;49.368;11.068;2022-09-13T10:44:53;66.63;;;53.47;;
3811;SDS011;1921;49.368;11.068;2022-09-13T10:47:46;65.60;;;52.50;;
3811;SDS011;1921;49.368;11.068;2022-09-13T10:50:25;66.73;;;52.90;;
3811;SDS011;1921;49.368;11.068;2022-09-13T10:52:54;66.77;;;53.20;;
3811;SDS011;1921;49.368;11.068;2022-09-13T10:55:25;72.07;;;53.53;;
3811;SDS011;1921;49.368;11.068;2022-09-13T11:00:38;65.87;;;53.20;;
3811;SDS011;1921;49.368;11.068;2022-09-13T11:06:52;67.00;;;53.70;;
3811;SDS011;1921;49.368;11.068;2022-09-13T11:09:58;65.80;;;53.07;;
3811;SDS011;1921;49.368;11.068;2022-09-13T11:15:58;67.50;;;53.80;;
3811;SDS011;1921;49.368;11.068;2022-09-13T11:21:08;67.07;;;53.50;;
3811;SDS011;1921;49.368;11.068;2022-09-13T11:24:02;67.10;;;53.50;;
3811;SDS011;1921;49.368;11.068;2022-09-13T11:27:08;67.80;;;53.77;;
3811;SDS011;1921;49.368;11.068;2022-09-13T11:30:04;67.73;;;53.57;;
3811;SDS011;1921;49.368;11.068;2022-09-13T11:38:57;67.07;;;53.77;;
3811;SDS011;1921;49.368;11.068;2022-09-13T11:41:59;69.70;;;54.63;;
3811;SDS011;1921;49.368;11.068;2022-09-13T11:51:15;67.10;;;54.00;;
3811;SDS011;1921;49.368;11.068;2022-09-13T11:56:59;70.80;;;54.00;;
3811;SDS011;1921;49.368;11.068;2022-09-13T11:59:46;69.73;;;54.37;;
3811;SDS011;1921;49.368;11.068;2022-09-13T12:02:23;69.20;;;53.80;;
3811;SDS011;1921;49.368;11.068;2022-09-13T12:05:18;68.13;;;54.50;;
3811;SDS011;1921;49.368;11.068;2022-09-13T12:13:09;66.60;;;53.30;;
3811;SDS011;1921;49.368;11.068;2022-09-13T12:15:43;69.10;;;53.20;;
3811;SDS011;1921;49.368;11.068;2022-09-13T12:18:14;70.30;;;53.93;;
3811;SDS011;1921;49.368;11.068;2022-09-13T12:20:53;66.07;;;53.50;;
3811;SDS011;1921;49.368;11.068;2022-09-13T12:23:33;67.10;;;53.60;;
3811;SDS011;1921;49.368;11.068;2022-09-13T12:26:09;66.37;;;53.70;;
3811;SDS011;1921;49.368;11.068;2022-09-13T12:31:55;63.80;;;52.30;;
3811;SDS011;1921;49.368;11.068;2022-09-13T12:34:39;64.50;;;52.53;;
3811;SDS011;1921;49.368;11.068;2022-09-13T12:40:33;69.33;;;53.70;;
3811;SDS011;1921;49.368;11.068;2022-09-13T12:52:16;66.50;;;53.83;;
3811;SDS011;1921;49.368;11.068;2022-09-13T12:55:03;67.37;;;53.27;;
3811;SDS011;1921;49.368;11.068;2022-09-13T13:03:40;64.23;;;52.50;;
3811;SDS011;1921;49.368;11.068;2022-09-13T13:09:24;67.40;;;53.30;;
3811;SDS011;1921;49.368;11.068;2022-09-13T13:12:06;63.37;;;52.43;;
3811;SDS011;1921;49.368;11.068;2022-09-13T13:15:52;64.30;;;52.50;;
3811;SDS011;1921;49.368;11.068;2022-09-13T13:17:52;70.27;;;53.07;;
3811;SDS011;1921;49.368;11.068;2022-09-13T13:23:35;66.57;;;52.53;;
3811;SDS011;1921;49.368;11.068;2022-09-13T13:46:51;66.20;;;53.27;;
3811;SDS011;1921;49.368;11.068;2022-09-13T13:57:29;64.87;;;53.00;;
3811;SDS011;1921;49.368;11.068;2022-09-13T14:00:24;64.87;;;52.50;;
3811;SDS011;1921;49.368;11.068;2022-09-13T14:05:28;65.20;;;52.83;;
3811;SDS011;1921;49.368;11.068;2022-09-13T14:13:46;65.33;;;52.90;;
3811;SDS011;1921;49.368;11.068;2022-09-13T14:19:39;64.17;;;52.63;;
3811;SDS011;1921;49.368;11.068;2022-09-13T14:22:28;66.37;;;53.60;;
3811;SDS011;1921;49.368;11.068;2022-09-13T14:24:59;67.03;;;53.43;;
3811;SDS011;1921;49.368;11.068;2022-09-13T14:27:43;64.20;;;52.60;;
3811;SDS011;1921;49.368;11.068;2022-09-13T14:30:21;64.90;;;52.80;;
3811;SDS011;1921;49.368;11.068;2022-09-13T14:32:58;65.90;;;52.80;;
3811;SDS011;1921;49.368;11.068;2022-09-13T14:35:36;65.47;;;53.03;;
3811;SDS011;1921;49.368;11.068;2022-09-13T14:40:48;64.17;;;52.40;;
3811;SDS011;1921;49.368;11.068;2022-09-13T14:43:22;64.53;;;53.20;;
3811;SDS011;1921;49.368;11.068;2022-09-13T14:45:56;65.30;;;52.97;;
3811;SDS011;1921;49.368;11.068;2022-09-13T14:48:47;66.67;;;53.10;;
3811;SDS011;1921;49.368;11.068;2022-09-13T14:51:22;66.10;;;53.40;;
3811;SDS011;1921;49.368;11.068;2022-09-13T14:57:02;66.60;;;53.33;;
3811;SDS011;1921;49.368;11.068;2022-09-13T14:59:33;66.50;;;53.00;;
3811;SDS011;1921;49.368;11.068;2022-09-13T15:02:15;66.33;;;53.63;;
3811;SDS011;1921;49.368;11.068;2022-09-13T15:04:52;66.90;;;53.63;;
3811;SDS011;1921;49.368;11.068;2022-09-13T15:07:32;67.13;;;53.30;;
3811;SDS011;1921;49.368;11.068;2022-09-13T15:10:05;66.20;;;53.77;;
3811;SDS011;1921;49.368;11.068;2022-09-13T15:12:37;65.60;;;53.33;;
3811;SDS011;1921;49.368;11.068;2022-09-13T15:18:29;72.30;;;53.13;;
3811;SDS011;1921;49.368;11.068;2022-09-13T15:23:41;68.67;;;53.80;;
3811;SDS011;1921;49.368;11.068;2022-09-13T15:31:27;67.77;;;53.50;;
3811;SDS011;1921;49.368;11.068;2022-09-13T15:36:44;66.33;;;53.50;;
3811;SDS011;1921;49.368;11.068;2022-09-13T15:39:25;65.23;;;52.60;;
3811;SDS011;1921;49.368;11.068;2022-09-13T15:44:18;65.23;;;53.37;;
3811;SDS011;1921;49.368;11.068;2022-09-13T15:47:00;63.57;;;52.50;;
3811;SDS011;1921;49.368;11.068;2022-09-13T15:49:32;64.20;;;52.70;;
3811;SDS011;1921;49.368;11.068;2022-09-13T15:51:58;65.77;;;53.40;;
3811;SDS011;1921;49.368;11.068;2022-09-13T15:54:30;66.13;;;53.80;;
3811;SDS011;1921;49.368;11.068;2022-09-13T15:56:59;64.30;;;53.40;;
3811;SDS011;1921;49.368;11.068;2022-09-13T15:59:25;66.67;;;53.80;;
3811;SDS011;1921;49.368;11.068;2022-09-13T16:01:51;64.90;;;53.13;;
3811;SDS011;1921;49.368;11.068;2022-09-13T16:04:18;65.80;;;53.70;;
3811;SDS011;1921;49.368;11.068;2022-09-13T16:06:44;65.53;;;53.67;;
3811;SDS011;1921;49.368;11.068;2022-09-13T16:09:19;64.30;;;53.07;;
3811;SDS011;1921;49.368;11.068;2022-09-13T16:11:49;67.70;;;53.63;;
3811;SDS011;1921;49.368;11.068;2022-09-13T16:14:16;68.10;;;53.47;;
3811;SDS011;1921;49.368;11.068;2022-09-13T16:16:43;65.60;;;53.07;;
3811;SDS011;1921;49.368;11.068;2022-09-13T16:19:16;64.87;;;53.17;;
3811;SDS011;1921;49.368;11.068;2022-09-13T16:21:44;66.30;;;53.50;;
3811;SDS011;1921;49.368;11.068;2022-09-13T16:24:10;65.57;;;53.23;;
3811;SDS011;1921;49.368;11.068;2022-09-13T16:26:36;67.87;;;53.93;;
3811;SDS011;1921;49.368;11.068;2022-09-13T16:29:02;66.10;;;53.60;;
3811;SDS011;1921;49.368;11.068;2022-09-13T16:31:28;65.37;;;53.70;;
3811;SDS011;1921;49.368;11.068;2022-09-13T16:33:53;64.70;;;53.50;;
3811;SDS011;1921;49.368;11.068;2022-09-13T16:36:19;64.70;;;53.33;;
3811;SDS011;1921;49.368;11.068;2022-09-13T16:38:45;64.30;;;53.27;;
3811;SDS011;1921;49.368;11.068;2022-09-13T16:41:11;64.00;;;53.07;;
3811;SDS011;1921;49.368;11.068;2022-09-13T16:43:36;67.17;;;52.80;;
3811;SDS011;1921;49.368;11.068;2022-09-13T16:46:06;65.07;;;53.30;;
3811;SDS011;1921;49.368;11.068;2022-09-13T16:48:33;64.70;;;53.00;;
3811;SDS011;1921;49.368;11.068;2022-09-13T16:51:01;64.43;;;53.00;;
3811;SDS011;1921;49.368;11.068;2022-09-13T16:53:32;65.63;;;52.93;;
3811;SDS011;1921;49.368;11.068;2022-09-13T16:56:04;65.37;;;53.30;;
3811;SDS011;1921;49.368;11.068;2022-09-13T16:58:31;66.50;;;52.83;;
3811;SDS011;1921;49.368;11.068;2022-09-13T17:01:02;63.40;;;52.70;;
3811;SDS011;1921;49.368;11.068;2022-09-13T17:03:29;62.97;;;52.50;;
3811;SDS011;1921;49.368;11.068;2022-09-13T17:05:56;62.77;;;52.50;;
3811;SDS011;1921;49.368;11.068;2022-09-13T17:08:27;66.20;;;52.90;;
3811;SDS011;1921;49.368;11.068;2022-09-13T17:10:54;63.40;;;52.70;;
3811;SDS011;1921;49.368;11.068;2022-09-13T17:13:20;65.70;;;52.93;;
3811;SDS011;1921;49.368;11.068;2022-09-13T17:15:46;62.73;;;52.40;;
3811;SDS011;1921;49.368;11.068;2022-09-13T17:18:12;64.13;;;53.20;;
3811;SDS011;1921;49.368;11.068;2022-09-13T17:20:45;64.27;;;52.47;;
3811;SDS011;1921;49.368;11.068;2022-09-13T17:23:12;63.37;;;52.47;;
3811;SDS011;1921;49.368;11.068;2022-09-13T17:25:39;63.07;;;52.23;;
3811;SDS011;1921;49.368;11.068;2022-09-13T17:28:11;67.13;;;52.83;;
3811;SDS011;1921;49.368;11.068;2022-09-13T17:30:38;62.97;;;53.27;;
3811;SDS011;1921;49.368;11.068;2022-09-13T17:33:05;65.90;;;52.87;;
3811;SDS011;1921;49.368;11.068;2022-09-13T17:35:31;64.07;;;52.30;;
3811;SDS011;1921;49.368;11.068;2022-09-13T17:37:58;61.83;;;52.07;;
3811;SDS011;1921;49.368;11.068;2022-09-13T17:40:24;61.97;;;51.97;;
3811;SDS011;1921;49.368;11.068;2022-09-13T17:42:50;63.43;;;52.23;;
3811;SDS011;1921;49.368;11.068;2022-09-13T17:45:16;62.63;;;52.50;;
3811;SDS011;1921;49.368;11.068;2022-09-13T17:47:42;62.70;;;52.83;;
3811;SDS011;1921;49.368;11.068;2022-09-13T17:50:08;62.70;;;52.30;;
3811;SDS011;1921;49.368;11.068;2022-09-13T17:52:34;63.60;;;52.53;;
3811;SDS011;1921;49.368;11.068;2022-09-13T17:54:59;62.57;;;52.20;;
3811;SDS011;1921;49.368;11.068;2022-09-13T17:57:26;63.67;;;53.23;;
3811;SDS011;1921;49.368;11.068;2022-09-13T17:59:52;63.27;;;52.73;;
3811;SDS011;1921;49.368;11.068;2022-09-13T18:02:18;62.67;;;52.20;;
3811;SDS011;1921;49.368;11.068;2022-09-13T18:04:45;66.80;;;52.07;;
3811;SDS011;1921;49.368;11.068;2022-09-13T18:07:14;65.80;;;52.47;;
3811;SDS011;1921;49.368;11.068;2022-09-13T18:09:40;62.33;;;52.10;;
3811;SDS011;1921;49.368;11.068;2022-09-13T18:12:08;64.97;;;52.43;;
3811;SDS011;1921;49.368;11.068;2022-09-13T18:14:38;60.90;;;51.77;;
3811;SDS011;1921;49.368;11.068;2022-09-13T18:17:04;63.27;;;51.87;;
3811;SDS011;1921;49.368;11.068;2022-09-13T18:19:37;61.10;;;51.80;;
3811;SDS011;1921;49.368;11.068;2022-09-13T18:22:04;62.73;;;51.90;;
3811;SDS011;1921;49.368;11.068;2022-09-13T18:24:34;64.30;;;52.47;;
3811;SDS011;1921;49.368;11.068;2022-09-13T18:27:00;63.43;;;52.57;;
3811;SDS011;1921;49.368;11.068;2022-09-13T18:29:26;64.50;;;52.77;;